Time;durP1;ratioP1;P1;durP2;ratioP2;P2;SDS_P1;SDS_P2;PMS_P1;PMS_P2;Temp;Humidity;BMP_temperature;BMP_pressure;BME280_temperature;BME280_humidity;BME280_pressure;Samples;Min_cycle;Max_cycle;Signal;HPM_P1;HPM_P2
2021/04/26 00:01:59;;;;;;;5.32;3.70;;;;;;;;;;5030614;28;20040;-57
2021/04/26 00:04:25;;;;;;;5.05;3.53;;;;;;;;;;5031194;28;20515;-56
2021/04/26 00:06:51;;;;;;;4.80;3.20;;;;;;;;;;5034731;28;20598;-54
2021/04/26 00:09:17;;;;;;;5.40;3.53;;;;;;;;;;5034383;28;20102;-56
2021/04/26 00:11:43;;;;;;;5.43;3.08;;;;;;;;;;5040285;28;20033;-53
2021/04/26 00:14:09;;;;;;;5.03;3.40;;;;;;;;;;5033922;28;20049;-57
2021/04/26 00:16:35;;;;;;;5.40;3.50;;;;;;;;;;5033806;28;20032;-57
2021/04/26 00:19:01;;;;;;;7.13;3.20;;;;;;;;;;5015138;28;20033;-54
2021/04/26 00:21:27;;;;;;;5.32;3.35;;;;;;;;;;5031930;28;20359;-56
2021/04/26 00:23:53;;;;;;;6.15;3.20;;;;;;;;;;5032556;28;20160;-54
2021/04/26 00:26:18;;;;;;;4.72;2.88;;;;;;;;;;5031185;28;20053;-55
2021/04/26 00:28:44;;;;;;;4.43;2.53;;;;;;;;;;5032288;28;20163;-57
2021/04/26 00:31:10;;;;;;;5.00;2.58;;;;;;;;;;5033674;28;20056;-55
2021/04/26 00:33:36;;;;;;;6.93;2.78;;;;;;;;;;5032783;28;20080;-55
2021/04/26 00:36:02;;;;;;;7.82;3.55;;;;;;;;;;5049445;28;20045;-54
2021/04/26 00:38:28;;;;;;;4.25;2.75;;;;;;;;;;5031665;28;20049;-56
2021/04/26 00:40:54;;;;;;;4.43;2.80;;;;;;;;;;5035605;28;20081;-56
2021/04/26 00:43:20;;;;;;;5.75;2.50;;;;;;;;;;5033576;28;20124;-53
2021/04/26 00:45:46;;;;;;;4.78;3.33;;;;;;;;;;5033780;28;20779;-56
2021/04/26 00:48:12;;;;;;;6.97;2.90;;;;;;;;;;5032981;28;20052;-56
2021/04/26 00:50:39;;;;;;;6.43;4.40;;;;;;;;;;5016557;28;20087;-54
2021/04/26 00:53:06;;;;;;;3.90;2.50;;;;;;;;;;5033404;28;20067;-55
2021/04/26 00:55:33;;;;;;;6.45;3.40;;;;;;;;;;5016018;28;20049;-55
2021/04/26 00:57:59;;;;;;;5.22;3.08;;;;;;;;;;5033997;28;20068;-57
2021/04/26 01:00:25;;;;;;;5.43;3.55;;;;;;;;;;5034002;28;20034;-55
2021/04/26 01:02:51;;;;;;;4.47;2.40;;;;;;;;;;5035931;28;20379;-57
2021/04/26 01:05:18;;;;;;;7.35;4.85;;;;;;;;;;5035937;28;20057;-55
2021/04/26 01:07:44;;;;;;;4.57;2.53;;;;;;;;;;5033511;28;20513;-53
2021/04/26 01:10:11;;;;;;;6.43;4.63;;;;;;;;;;5029945;28;20044;-54
2021/04/26 01:12:46;;;;;;;5.60;2.90;;;;;;;;;;5033018;28;20132;-55
2021/04/26 01:15:15;;;;;;;4.93;3.00;;;;;;;;;;5031827;28;20063;-55
2021/04/26 01:17:50;;;;;;;5.13;2.90;;;;;;;;;;5032126;28;20041;-56
2021/04/26 01:20:34;;;;;;;6.28;3.10;;;;;;;;;;5035548;28;20404;-56
2021/04/26 01:23:18;;;;;;;4.85;2.67;;;;;;;;;;5035864;28;20044;-53
2021/04/26 01:25:44;;;;;;;7.75;3.10;;;;;;;;;;5034907;28;20041;-53
2021/04/26 01:28:10;;;;;;;7.50;2.88;;;;;;;;;;5035403;28;20152;-53
2021/04/26 01:30:42;;;;;;;5.22;3.30;;;;;;;;;;5033806;28;20041;-54
2021/04/26 01:33:13;;;;;;;4.85;2.80;;;;;;;;;;5031790;28;20060;-56
2021/04/26 01:35:39;;;;;;;5.07;3.47;;;;;;;;;;5032116;28;20037;-56
2021/04/26 01:38:18;;;;;;;6.13;3.17;;;;;;;;;;5032645;28;20419;-55
2021/04/26 01:40:46;;;;;;;6.22;3.22;;;;;;;;;;5032008;28;20782;-57
2021/04/26 01:43:15;;;;;;;8.23;3.30;;;;;;;;;;5032796;28;20053;-57
2021/04/26 01:45:41;;;;;;;4.22;2.67;;;;;;;;;;5029475;28;20058;-56
2021/04/26 01:48:08;;;;;;;4.35;2.65;;;;;;;;;;5032434;28;20040;-57
2021/04/26 01:50:34;;;;;;;5.32;3.58;;;;;;;;;;5029077;28;20048;-57
2021/04/26 01:53:00;;;;;;;5.18;3.05;;;;;;;;;;5032437;28;20044;-56
2021/04/26 01:55:26;;;;;;;4.72;2.85;;;;;;;;;;5030537;28;20041;-56
2021/04/26 01:57:53;;;;;;;5.63;2.72;;;;;;;;;;5031723;28;20575;-59
2021/04/26 02:00:21;;;;;;;6.38;3.38;;;;;;;;;;5032055;28;20073;-56
2021/04/26 02:02:48;;;;;;;5.78;3.42;;;;;;;;;;5031192;28;20536;-56
2021/04/26 02:05:14;;;;;;;4.97;3.17;;;;;;;;;;5030237;28;20092;-54
2021/04/26 02:07:42;;;;;;;5.75;3.42;;;;;;;;;;5029392;28;20490;-56
2021/04/26 02:10:09;;;;;;;5.18;3.50;;;;;;;;;;5011145;28;20033;-57
2021/04/26 02:12:35;;;;;;;9.32;4.70;;;;;;;;;;5030098;28;20067;-55
2021/04/26 02:15:01;;;;;;;7.65;4.68;;;;;;;;;;5023700;28;20503;-55
2021/04/26 02:17:29;;;;;;;10.10;5.95;;;;;;;;;;5030938;28;20036;-54
2021/04/26 02:19:54;;;;;;;7.43;4.93;;;;;;;;;;5030990;28;20447;-57
2021/04/26 02:22:20;;;;;;;8.07;4.30;;;;;;;;;;5033050;28;20041;-56
2021/04/26 02:24:46;;;;;;;6.95;4.15;;;;;;;;;;5031284;28;20379;-56
2021/04/26 02:27:12;;;;;;;7.93;3.83;;;;;;;;;;5032210;28;20061;-57
2021/04/26 02:29:38;;;;;;;8.25;3.80;;;;;;;;;;5021508;28;20040;-55
2021/04/26 02:32:07;;;;;;;7.55;3.15;;;;;;;;;;5031659;28;20064;-56
2021/04/26 02:34:36;;;;;;;8.07;3.42;;;;;;;;;;5030880;28;20115;-57
2021/04/26 02:37:06;;;;;;;5.68;3.20;;;;;;;;;;5033670;28;20235;-55
2021/04/26 02:39:33;;;;;;;8.23;3.65;;;;;;;;;;5031286;28;20072;-57
2021/04/26 02:41:59;;;;;;;6.85;4.00;;;;;;;;;;5032705;28;20045;-55
2021/04/26 02:44:26;;;;;;;9.07;3.88;;;;;;;;;;5033040;28;20036;-53
2021/04/26 02:46:58;;;;;;;11.82;7.28;;;;;;;;;;5033906;28;20058;-55
2021/04/26 02:49:25;;;;;;;12.15;8.23;;;;;;;;;;5032356;28;20101;-57
2021/04/26 02:51:51;;;;;;;42.33;18.35;;;;;;;;;;5033548;28;20036;-54
2021/04/26 02:54:19;;;;;;;30.00;15.20;;;;;;;;;;5014265;28;20051;-56
2021/04/26 02:56:45;;;;;;;29.00;13.88;;;;;;;;;;5032299;28;20046;-57
2021/04/26 02:59:16;;;;;;;37.30;17.67;;;;;;;;;;5031579;28;20048;-55
2021/04/26 03:01:42;;;;;;;28.02;16.55;;;;;;;;;;5031617;28;20481;-57
2021/04/26 03:04:09;;;;;;;30.67;17.50;;;;;;;;;;5023856;28;20045;-57
2021/04/26 03:06:35;;;;;;;18.10;10.68;;;;;;;;;;5030539;28;20095;-57
2021/04/26 03:09:01;;;;;;;15.52;9.70;;;;;;;;;;5030335;28;20045;-56
2021/04/26 03:11:29;;;;;;;8.50;5.72;;;;;;;;;;5029764;28;20051;-57
2021/04/26 03:13:55;;;;;;;10.13;5.03;;;;;;;;;;5030680;28;20446;-57
2021/04/26 03:16:21;;;;;;;7.65;5.45;;;;;;;;;;5031397;28;20117;-56
2021/04/26 03:18:47;;;;;;;8.77;5.40;;;;;;;;;;5031139;28;20877;-57
2021/04/26 03:21:13;;;;;;;12.07;6.47;;;;;;;;;;5030804;28;20124;-57
2021/04/26 03:23:41;;;;;;;9.73;6.18;;;;;;;;;;5032345;28;20044;-55
2021/04/26 03:26:07;;;;;;;12.32;6.03;;;;;;;;;;5031185;28;20059;-56
2021/04/26 03:28:34;;;;;;;14.00;7.30;;;;;;;;;;5027628;28;20136;-53
2021/04/26 03:31:01;;;;;;;12.40;7.03;;;;;;;;;;5032455;28;20049;-55
2021/04/26 03:33:29;;;;;;;13.57;7.63;;;;;;;;;;5014369;28;20059;-56
2021/04/26 03:35:56;;;;;;;11.55;7.85;;;;;;;;;;5030946;28;20538;-58
2021/04/26 03:38:22;;;;;;;11.45;7.18;;;;;;;;;;5030460;28;20041;-55
2021/04/26 03:40:48;;;;;;;13.63;7.63;;;;;;;;;;5024853;28;20083;-56
2021/04/26 03:43:15;;;;;;;15.95;7.95;;;;;;;;;;5021958;28;20531;-57
2021/04/26 03:45:41;;;;;;;12.85;8.00;;;;;;;;;;5034378;28;20049;-56
2021/04/26 03:48:07;;;;;;;14.00;8.27;;;;;;;;;;5034043;28;20433;-55
2021/04/26 03:50:33;;;;;;;12.82;8.38;;;;;;;;;;5033725;28;20069;-57
2021/04/26 03:52:59;;;;;;;13.90;8.18;;;;;;;;;;5034046;28;20041;-55
2021/04/26 03:55:25;;;;;;;15.07;8.63;;;;;;;;;;5049028;28;20041;-56
2021/04/26 03:57:51;;;;;;;12.60;8.32;;;;;;;;;;5032308;28;20045;-56
2021/04/26 04:00:18;;;;;;;12.18;8.13;;;;;;;;;;5034981;28;20471;-55
2021/04/26 04:02:46;;;;;;;14.30;9.45;;;;;;;;;;5015826;28;20043;-56
2021/04/26 04:05:12;;;;;;;15.88;9.32;;;;;;;;;;5033319;28;20055;-52
2021/04/26 04:07:38;;;;;;;15.77;9.05;;;;;;;;;;5032730;28;20111;-56
2021/04/26 04:10:05;;;;;;;16.50;10.30;;;;;;;;;;5033980;28;20048;-56
2021/04/26 04:12:31;;;;;;;15.75;10.50;;;;;;;;;;5032647;28;20037;-57
2021/04/26 04:14:57;;;;;;;17.25;10.00;;;;;;;;;;5035291;28;20041;-53
2021/04/26 04:17:23;;;;;;;15.95;9.90;;;;;;;;;;5033074;28;20122;-52
2021/04/26 04:19:48;;;;;;;17.33;10.32;;;;;;;;;;5032311;28;20503;-56
2021/04/26 04:22:14;;;;;;;21.15;10.02;;;;;;;;;;5035110;28;20667;-57
2021/04/26 04:24:40;;;;;;;19.58;11.30;;;;;;;;;;5032686;28;20060;-56
2021/04/26 04:27:07;;;;;;;17.58;10.82;;;;;;;;;;5034133;28;20120;-55
2021/04/26 04:29:32;;;;;;;16.77;11.18;;;;;;;;;;5030837;28;20072;-57
2021/04/26 04:31:58;;;;;;;20.70;13.13;;;;;;;;;;5032860;28;20125;-55
2021/04/26 04:34:24;;;;;;;18.45;12.63;;;;;;;;;;5031222;28;20045;-56
2021/04/26 04:36:51;;;;;;;20.25;13.77;;;;;;;;;;5034255;28;20044;-56
2021/04/26 04:39:17;;;;;;;20.98;12.98;;;;;;;;;;5033588;28;20044;-55
2021/04/26 04:41:43;;;;;;;21.70;13.07;;;;;;;;;;5033200;28;20725;-55
2021/04/26 04:44:08;;;;;;;23.13;15.07;;;;;;;;;;5032376;28;20037;-57
2021/04/26 04:46:34;;;;;;;25.27;14.55;;;;;;;;;;5032706;28;20056;-57
2021/04/26 04:49:00;;;;;;;25.20;15.38;;;;;;;;;;5036318;28;20094;-57
2021/04/26 04:51:26;;;;;;;22.17;14.57;;;;;;;;;;5018752;28;20040;-52
2021/04/26 04:53:53;;;;;;;21.65;13.82;;;;;;;;;;5034376;28;20041;-55
2021/04/26 04:56:19;;;;;;;22.05;14.65;;;;;;;;;;5034852;28;20886;-55
2021/04/26 04:58:45;;;;;;;24.42;15.23;;;;;;;;;;5034132;28;20034;-57
2021/04/26 05:01:11;;;;;;;24.23;15.07;;;;;;;;;;5034673;28;20048;-56
2021/04/26 05:03:37;;;;;;;27.90;17.27;;;;;;;;;;5035241;28;20250;-57
2021/04/26 05:06:03;;;;;;;26.63;15.80;;;;;;;;;;5036960;28;20396;-56
2021/04/26 05:08:29;;;;;;;23.23;15.40;;;;;;;;;;5037794;28;20044;-57
2021/04/26 05:10:55;;;;;;;25.40;15.30;;;;;;;;;;5035645;28;20025;-56
2021/04/26 05:13:22;;;;;;;21.30;14.30;;;;;;;;;;5035659;28;20041;-56
2021/04/26 05:15:48;;;;;;;22.17;14.68;;;;;;;;;;5037072;28;20048;-53
2021/04/26 05:18:14;;;;;;;28.38;17.00;;;;;;;;;;5036854;28;20033;-53
2021/04/26 05:20:41;;;;;;;27.25;16.27;;;;;;;;;;5036851;28;20674;-55
2021/04/26 05:23:07;;;;;;;26.20;15.77;;;;;;;;;;5036456;28;20187;-54
2021/04/26 05:25:33;;;;;;;25.83;14.88;;;;;;;;;;5034028;28;20045;-55
2021/04/26 05:27:59;;;;;;;27.25;15.43;;;;;;;;;;5034830;28;20434;-56
2021/04/26 05:30:24;;;;;;;23.75;14.75;;;;;;;;;;5010637;28;20130;-56
2021/04/26 05:32:50;;;;;;;27.27;15.05;;;;;;;;;;5034354;28;20033;-57
2021/04/26 05:35:16;;;;;;;30.33;18.42;;;;;;;;;;5036351;28;20107;-53
2021/04/26 05:37:42;;;;;;;31.13;16.92;;;;;;;;;;5018194;28;20848;-57
2021/04/26 05:40:08;;;;;;;31.38;17.35;;;;;;;;;;5035237;28;20069;-57
2021/04/26 05:42:34;;;;;;;28.10;16.48;;;;;;;;;;5036199;28;20056;-56
2021/04/26 05:45:00;;;;;;;29.63;16.50;;;;;;;;;;5033890;28;20072;-55
2021/04/26 05:47:26;;;;;;;30.60;18.00;;;;;;;;;;5031262;28;20044;-56
2021/04/26 05:49:52;;;;;;;33.40;18.80;;;;;;;;;;5034472;28;20068;-57
2021/04/26 05:52:17;;;;;;;28.77;18.38;;;;;;;;;;5032650;28;20041;-57
2021/04/26 05:54:43;;;;;;;34.05;18.88;;;;;;;;;;5014158;28;20037;-53
2021/04/26 05:57:10;;;;;;;28.42;16.25;;;;;;;;;;5031594;28;20126;-54
2021/04/26 05:59:36;;;;;;;29.25;18.48;;;;;;;;;;5031330;28;20403;-57
2021/04/26 06:02:02;;;;;;;39.63;18.35;;;;;;;;;;5031384;28;20084;-55
2021/04/26 06:04:28;;;;;;;28.33;17.67;;;;;;;;;;5032422;28;20053;-55
2021/04/26 06:06:54;;;;;;;35.72;20.30;;;;;;;;;;5032552;28;20041;-57
2021/04/26 06:09:19;;;;;;;35.25;19.17;;;;;;;;;;5033386;28;20041;-55
2021/04/26 06:11:45;;;;;;;40.60;21.23;;;;;;;;;;5033714;28;20041;-56
2021/04/26 06:14:11;;;;;;;37.78;19.90;;;;;;;;;;5035595;28;20080;-55
2021/04/26 06:16:37;;;;;;;34.15;19.50;;;;;;;;;;5032547;28;20043;-55
2021/04/26 06:19:04;;;;;;;30.90;19.20;;;;;;;;;;5017389;28;20052;-57
2021/04/26 06:21:30;;;;;;;34.00;19.70;;;;;;;;;;5031994;28;20191;-58
2021/04/26 06:23:56;;;;;;;36.30;21.38;;;;;;;;;;5030759;28;20184;-54
2021/04/26 06:26:22;;;;;;;34.63;19.75;;;;;;;;;;5031085;28;20044;-58
2021/04/26 06:28:48;;;;;;;34.22;19.58;;;;;;;;;;5014467;28;20146;-54
2021/04/26 06:31:14;;;;;;;35.95;20.35;;;;;;;;;;5031092;28;20048;-56
2021/04/26 06:33:40;;;;;;;40.03;21.05;;;;;;;;;;5015051;28;20613;-56
2021/04/26 06:36:06;;;;;;;33.97;20.05;;;;;;;;;;5034315;28;20128;-53
2021/04/26 06:38:32;;;;;;;35.00;21.20;;;;;;;;;;5032205;28;20149;-54
2021/04/26 06:40:58;;;;;;;37.40;20.42;;;;;;;;;;5031426;28;20037;-55
2021/04/26 06:43:24;;;;;;;39.55;21.63;;;;;;;;;;5045890;28;20053;-57
2021/04/26 06:45:50;;;;;;;38.72;19.98;;;;;;;;;;5032203;28;20052;-54
2021/04/26 06:48:17;;;;;;;36.30;19.27;;;;;;;;;;5032720;28;20037;-54
2021/04/26 06:50:43;;;;;;;34.53;20.20;;;;;;;;;;5029933;28;20048;-54
2021/04/26 06:53:09;;;;;;;32.38;18.67;;;;;;;;;;5033971;28;20045;-53
2021/04/26 06:55:35;;;;;;;36.80;19.35;;;;;;;;;;5031203;28;20048;-52
2021/04/26 06:58:01;;;;;;;38.08;20.38;;;;;;;;;;5031936;28;20040;-53
2021/04/26 07:00:28;;;;;;;35.35;19.15;;;;;;;;;;5030835;28;20668;-55
2021/04/26 07:02:54;;;;;;;38.53;20.05;;;;;;;;;;5031315;28;20049;-53
2021/04/26 07:05:21;;;;;;;38.85;19.83;;;;;;;;;;5031944;28;20070;-56
2021/04/26 07:07:47;;;;;;;36.97;19.88;;;;;;;;;;5030577;28;20029;-55
2021/04/26 07:10:13;;;;;;;34.92;18.63;;;;;;;;;;5030263;28;20064;-56
2021/04/26 07:12:39;;;;;;;33.33;18.60;;;;;;;;;;5030226;28;20171;-53
2021/04/26 07:15:06;;;;;;;34.30;18.85;;;;;;;;;;5035037;28;20149;-54
2021/04/26 07:17:34;;;;;;;38.58;20.80;;;;;;;;;;5033930;28;20068;-54
2021/04/26 07:20:00;;;;;;;39.55;21.20;;;;;;;;;;5034499;28;20515;-57
2021/04/26 07:22:26;;;;;;;33.40;19.42;;;;;;;;;;5019956;28;20033;-58
2021/04/26 07:24:53;;;;;;;35.88;19.50;;;;;;;;;;5036854;28;20094;-57
2021/04/26 07:27:19;;;;;;;29.20;17.85;;;;;;;;;;5036634;28;20049;-57
2021/04/26 07:29:45;;;;;;;34.58;18.10;;;;;;;;;;5037874;28;20088;-56
2021/04/26 07:32:10;;;;;;;34.50;18.45;;;;;;;;;;5021388;28;20127;-54
2021/04/26 07:34:36;;;;;;;29.75;16.52;;;;;;;;;;5036158;28;20046;-55
2021/04/26 07:37:02;;;;;;;29.45;17.02;;;;;;;;;;5036932;28;20259;-58
2021/04/26 07:39:31;;;;;;;32.25;17.10;;;;;;;;;;5035849;28;20035;-56
2021/04/26 07:41:57;;;;;;;33.30;17.15;;;;;;;;;;5035690;28;20067;-56
2021/04/26 07:44:23;;;;;;;35.45;18.20;;;;;;;;;;5032735;28;20090;-57
2021/04/26 07:46:49;;;;;;;38.83;18.10;;;;;;;;;;5035320;28;20048;-52
2021/04/26 07:49:15;;;;;;;28.52;16.88;;;;;;;;;;5032711;28;20650;-56
2021/04/26 07:51:41;;;;;;;35.15;17.63;;;;;;;;;;5037705;28;20056;-56
2021/04/26 07:54:07;;;;;;;34.38;17.00;;;;;;;;;;5035917;28;20036;-53
2021/04/26 07:56:33;;;;;;;31.83;16.77;;;;;;;;;;5034266;28;20454;-53
2021/04/26 07:58:58;;;;;;;34.13;18.15;;;;;;;;;;5034135;28;20509;-55
2021/04/26 08:01:24;;;;;;;30.73;17.35;;;;;;;;;;5034309;28;20080;-56
2021/04/26 08:03:53;;;;;;;36.72;18.10;;;;;;;;;;5021161;28;20380;-56
2021/04/26 08:06:19;;;;;;;34.03;17.50;;;;;;;;;;5035235;28;20136;-54
2021/04/26 08:08:44;;;;;;;35.10;16.92;;;;;;;;;;5035367;28;20043;-56
2021/04/26 08:11:10;;;;;;;38.22;18.45;;;;;;;;;;5027040;28;20052;-54
2021/04/26 08:13:36;;;;;;;36.20;18.08;;;;;;;;;;5035462;28;20120;-57
2021/04/26 08:16:02;;;;;;;41.13;20.08;;;;;;;;;;5036633;28;20431;-56
2021/04/26 08:18:29;;;;;;;40.42;20.17;;;;;;;;;;5035532;28;20095;-55
2021/04/26 08:20:54;;;;;;;42.42;21.08;;;;;;;;;;5033842;28;20925;-55
2021/04/26 08:23:20;;;;;;;47.38;21.27;;;;;;;;;;5035123;28;20045;-56
2021/04/26 08:25:46;;;;;;;42.00;20.73;;;;;;;;;;5033892;28;20115;-56
2021/04/26 08:28:14;;;;;;;37.38;19.63;;;;;;;;;;5034220;28;20029;-59
2021/04/26 08:30:40;;;;;;;33.85;18.42;;;;;;;;;;5033436;28;20033;-58
2021/04/26 08:33:06;;;;;;;36.58;18.95;;;;;;;;;;5033484;28;20095;-57
2021/04/26 08:35:32;;;;;;;37.35;18.90;;;;;;;;;;5033199;28;20139;-57
2021/04/26 08:37:58;;;;;;;35.42;17.88;;;;;;;;;;5033608;28;20041;-57
2021/04/26 08:40:24;;;;;;;39.53;19.05;;;;;;;;;;5031255;28;20032;-57
2021/04/26 08:42:50;;;;;;;39.92;19.02;;;;;;;;;;5016996;28;20049;-55
2021/04/26 08:45:16;;;;;;;35.88;18.00;;;;;;;;;;4996227;28;20045;-58
2021/04/26 08:47:42;;;;;;;34.47;17.38;;;;;;;;;;5034564;28;20041;-57
2021/04/26 08:50:08;;;;;;;43.00;19.30;;;;;;;;;;5032636;28;20053;-55
2021/04/26 08:52:35;;;;;;;43.50;19.08;;;;;;;;;;5036001;28;20037;-57
2021/04/26 08:55:01;;;;;;;41.28;17.85;;;;;;;;;;5017565;28;20060;-57
2021/04/26 08:57:28;;;;;;;39.17;19.35;;;;;;;;;;5030579;28;22184;-57
2021/04/26 08:59:53;;;;;;;40.20;17.98;;;;;;;;;;5034709;28;20083;-56
2021/04/26 09:02:19;;;;;;;38.10;18.27;;;;;;;;;;5015531;28;20037;-57
2021/04/26 09:04:48;;;;;;;36.33;17.85;;;;;;;;;;5017430;28;20087;-57
2021/04/26 09:07:13;;;;;;;42.95;19.20;;;;;;;;;;5030176;28;20364;-56
2021/04/26 09:09:41;;;;;;;50.65;22.83;;;;;;;;;;5032145;28;20051;-58
2021/04/26 09:12:22;;;;;;;45.95;21.85;;;;;;;;;;5016198;28;20041;-54
2021/04/26 09:14:52;;;;;;;45.25;20.05;;;;;;;;;;5033205;28;20040;-58
2021/04/26 09:17:24;;;;;;;40.03;19.10;;;;;;;;;;5030667;28;20736;-56
2021/04/26 09:19:51;;;;;;;43.75;19.38;;;;;;;;;;5013745;28;20049;-57
2021/04/26 09:22:17;;;;;;;41.65;19.20;;;;;;;;;;5015097;28;20073;-57
2021/04/26 09:24:43;;;;;;;46.72;20.13;;;;;;;;;;5030856;28;20049;-54
2021/04/26 09:27:15;;;;;;;46.90;20.17;;;;;;;;;;5031062;28;20132;-56
2021/04/26 09:29:41;;;;;;;45.95;19.23;;;;;;;;;;5033253;28;20075;-57
2021/04/26 09:32:08;;;;;;;38.38;18.58;;;;;;;;;;5033713;28;20044;-57
2021/04/26 09:34:38;;;;;;;42.53;20.08;;;;;;;;;;5031913;28;20522;-56
2021/04/26 09:37:04;;;;;;;50.17;20.98;;;;;;;;;;5030905;28;20122;-57
2021/04/26 09:39:30;;;;;;;50.38;20.77;;;;;;;;;;5031886;28;20041;-57
2021/04/26 09:41:57;;;;;;;48.67;20.88;;;;;;;;;;5032640;28;20062;-57
2021/04/26 09:44:23;;;;;;;53.95;20.98;;;;;;;;;;5030755;28;20043;-57
2021/04/26 09:46:52;;;;;;;51.80;20.85;;;;;;;;;;5033167;28;20041;-56
2021/04/26 09:49:19;;;;;;;49.65;19.65;;;;;;;;;;5030910;28;20044;-56
2021/04/26 09:51:48;;;;;;;55.38;21.00;;;;;;;;;;5030830;28;20705;-56
2021/04/26 09:54:14;;;;;;;54.50;21.00;;;;;;;;;;5032871;28;20061;-58
2021/04/26 09:56:41;;;;;;;56.53;22.42;;;;;;;;;;5030950;28;20114;-55
2021/04/26 09:59:08;;;;;;;54.53;23.25;;;;;;;;;;5032410;28;20091;-56
2021/04/26 10:01:35;;;;;;;55.55;23.02;;;;;;;;;;5031248;28;20076;-57
2021/04/26 10:04:01;;;;;;;54.33;22.42;;;;;;;;;;5031658;28;20045;-57
2021/04/26 10:06:27;;;;;;;52.10;20.25;;;;;;;;;;5031689;28;20056;-57
2021/04/26 10:08:56;;;;;;;54.50;21.38;;;;;;;;;;5030729;28;20036;-54
2021/04/26 10:11:23;;;;;;;47.88;20.30;;;;;;;;;;5012771;28;20048;-54
2021/04/26 10:13:49;;;;;;;48.60;21.15;;;;;;;;;;5033421;28;20041;-53
2021/04/26 10:16:18;;;;;;;44.45;19.38;;;;;;;;;;5029639;28;20041;-56
2021/04/26 10:18:44;;;;;;;52.95;20.02;;;;;;;;;;5030098;28;20053;-55
2021/04/26 10:21:19;;;;;;;41.35;18.80;;;;;;;;;;5032060;28;20049;-57
2021/04/26 10:23:45;;;;;;;44.10;19.02;;;;;;;;;;5030177;28;20041;-57
2021/04/26 10:26:29;;;;;;;46.17;19.23;;;;;;;;;;5029679;28;20049;-57
2021/04/26 10:29:08;;;;;;;47.80;19.15;;;;;;;;;;5031145;28;20067;-56
2021/04/26 10:31:53;;;;;;;49.20;18.98;;;;;;;;;;5032499;28;20128;-55
2021/04/26 10:34:19;;;;;;;42.08;18.63;;;;;;;;;;5031193;28;20494;-56
2021/04/26 10:36:56;;;;;;;41.80;18.30;;;;;;;;;;5015543;28;20124;-56
2021/04/26 10:39:22;;;;;;;43.25;18.27;;;;;;;;;;5032376;28;20043;-56
2021/04/26 10:41:49;;;;;;;43.50;18.42;;;;;;;;;;5007613;28;20552;-57
2021/04/26 10:44:15;;;;;;;47.65;19.67;;;;;;;;;;5032401;28;20037;-56
2021/04/26 10:46:41;;;;;;;45.60;19.05;;;;;;;;;;5031224;28;20111;-55
2021/04/26 10:49:07;;;;;;;48.97;18.92;;;;;;;;;;5033389;28;20262;-55
2021/04/26 10:51:37;;;;;;;49.80;18.70;;;;;;;;;;5015209;28;20045;-53
2021/04/26 10:54:03;;;;;;;50.28;18.40;;;;;;;;;;5034391;28;20273;-57
2021/04/26 10:56:29;;;;;;;52.35;18.70;;;;;;;;;;5031837;28;20041;-56
2021/04/26 10:59:14;;;;;;;78.40;20.10;;;;;;;;;;5034573;28;20076;-56
2021/04/26 11:01:49;;;;;;;97.45;19.08;;;;;;;;;;5032804;28;20124;-55
2021/04/26 11:04:16;;;;;;;88.00;19.90;;;;;;;;;;5032060;28;20045;-57
2021/04/26 11:07:00;;;;;;;96.22;20.13;;;;;;;;;;5031379;28;20096;-54
2021/04/26 11:09:25;;;;;;;;;;;;;;;;;;5031165;28;20039;-57
2021/04/26 11:12:08;;;;;;;61.83;18.42;;;;;;;;;;5033748;28;20000;-56
2021/04/26 11:14:34;;;;;;;49.25;18.77;;;;;;;;;;5034816;28;20080;-56
2021/04/26 11:17:03;;;;;;;47.22;19.20;;;;;;;;;;5032602;28;20580;-56
2021/04/26 11:19:29;;;;;;;47.95;18.30;;;;;;;;;;5015762;28;20044;-56
2021/04/26 11:21:56;;;;;;;47.80;20.10;;;;;;;;;;5035047;28;20041;-54
2021/04/26 11:24:25;;;;;;;52.25;19.92;;;;;;;;;;5033231;28;20547;-55
2021/04/26 11:27:26;;;;;;;55.08;20.15;;;;;;;;;;5034413;28;20137;-55
2021/04/26 11:29:52;;;;;;;44.53;18.98;;;;;;;;;;4934714;28;20126;-55
2021/04/26 11:32:19;;;;;;;52.65;19.92;;;;;;;;;;5012439;28;20036;-53
2021/04/26 11:34:47;;;;;;;48.33;19.83;;;;;;;;;;5030928;28;20041;-57
2021/04/26 11:37:33;;;;;;;52.55;20.05;;;;;;;;;;5030831;28;20049;-53
2021/04/26 11:39:59;;;;;;;51.35;21.20;;;;;;;;;;5029451;28;20053;-53
2021/04/26 11:42:29;;;;;;;51.83;21.63;;;;;;;;;;5029075;28;20481;-54
2021/04/26 11:44:56;;;;;;;61.90;23.17;;;;;;;;;;5031643;28;20045;-56
2021/04/26 11:47:23;;;;;;;53.70;21.67;;;;;;;;;;5045417;28;20048;-54
2021/04/26 11:49:49;;;;;;;52.72;21.90;;;;;;;;;;5029857;28;20415;-55
2021/04/26 11:52:23;;;;;;;54.80;23.05;;;;;;;;;;5013520;28;20047;-54
2021/04/26 11:54:50;;;;;;;64.75;23.92;;;;;;;;;;5028956;28;20045;-56
2021/04/26 11:57:20;;;;;;;55.00;23.35;;;;;;;;;;5014315;28;20045;-57
2021/04/26 11:59:57;;;;;;;58.63;23.77;;;;;;;;;;5032079;28;20052;-54
2021/04/26 12:02:27;;;;;;;53.33;22.65;;;;;;;;;;5036084;28;20048;-53
2021/04/26 12:04:53;;;;;;;51.20;23.30;;;;;;;;;;5034706;28;20048;-55
2021/04/26 12:07:19;;;;;;;55.70;23.75;;;;;;;;;;5033098;28;20037;-57
2021/04/26 12:09:52;;;;;;;58.90;24.27;;;;;;;;;;5034594;28;20826;-55
2021/04/26 12:12:25;;;;;;;54.38;22.05;;;;;;;;;;5033172;28;20128;-55
2021/04/26 12:14:54;;;;;;;64.38;24.73;;;;;;;;;;5033651;28;20539;-56
2021/04/26 12:17:25;;;;;;;59.80;24.25;;;;;;;;;;5033863;28;20057;-57
2021/04/26 12:19:51;;;;;;;58.13;21.95;;;;;;;;;;5018630;28;20041;-53
2021/04/26 12:22:20;;;;;;;58.60;23.25;;;;;;;;;;5033122;28;20040;-54
2021/04/26 12:24:47;;;;;;;63.45;24.65;;;;;;;;;;5031216;28;20029;-55
2021/04/26 12:27:15;;;;;;;62.78;24.70;;;;;;;;;;5016966;28;20037;-54
2021/04/26 12:29:42;;;;;;;64.88;25.60;;;;;;;;;;5032205;28;20126;-56
2021/04/26 12:32:13;;;;;;;68.65;23.50;;;;;;;;;;5038033;28;20794;-56
2021/04/26 12:35:00;;;;;;;56.47;23.73;;;;;;;;;;5035058;28;20045;-55
2021/04/26 12:37:30;;;;;;;60.47;23.95;;;;;;;;;;5032933;28;20075;-56
2021/04/26 12:40:11;;;;;;;59.40;23.17;;;;;;;;;;5037662;28;20028;-55
2021/04/26 12:42:37;;;;;;;55.58;22.85;;;;;;;;;;5032364;28;20073;-56
2021/04/26 12:45:21;;;;;;;56.08;23.10;;;;;;;;;;5015674;28;21977;-57
2021/04/26 12:47:46;;;;;;;;;;;;;;;;;;5032652;28;20060;-56
2021/04/26 12:50:16;;;;;;;54.38;22.33;;;;;;;;;;5034670;28;19920;-54
2021/04/26 12:52:45;;;;;;;58.13;21.92;;;;;;;;;;5014087;28;20121;-55
2021/04/26 12:55:12;;;;;;;51.80;21.73;;;;;;;;;;5025229;28;20041;-56
2021/04/26 12:57:39;;;;;;;53.15;21.67;;;;;;;;;;5031877;28;20052;-57
2021/04/26 13:00:08;;;;;;;54.42;23.20;;;;;;;;;;5047411;28;20041;-54
2021/04/26 13:02:35;;;;;;;52.50;21.85;;;;;;;;;;5033394;28;20064;-55
2021/04/26 13:05:01;;;;;;;47.30;21.23;;;;;;;;;;5016556;28;20062;-55
2021/04/26 13:07:27;;;;;;;46.90;20.83;;;;;;;;;;5034263;28;20677;-55
2021/04/26 13:10:09;;;;;;;46.20;19.98;;;;;;;;;;5034770;28;20116;-54
2021/04/26 13:12:35;;;;;;;47.58;21.38;;;;;;;;;;5016479;28;20045;-56
2021/04/26 13:15:21;;;;;;;50.05;22.58;;;;;;;;;;5034124;28;20041;-53
2021/04/26 13:17:47;;;;;;;47.00;20.80;;;;;;;;;;5035147;28;20045;-56
2021/04/26 13:20:21;;;;;;;44.25;21.25;;;;;;;;;;5035834;28;20040;-57
2021/04/26 13:22:47;;;;;;;45.45;19.75;;;;;;;;;;5038051;28;20053;-56
2021/04/26 13:25:13;;;;;;;41.40;20.52;;;;;;;;;;5035969;28;20400;-54
2021/04/26 13:27:43;;;;;;;48.08;21.17;;;;;;;;;;5017616;28;20179;-53
2021/04/26 13:30:09;;;;;;;43.75;20.63;;;;;;;;;;5035030;28;21109;-53
2021/04/26 13:32:35;;;;;;;37.78;18.60;;;;;;;;;;5031432;28;20146;-55
2021/04/26 13:35:01;;;;;;;37.85;18.52;;;;;;;;;;5032496;28;20124;-55
2021/04/26 13:37:27;;;;;;;36.53;18.15;;;;;;;;;;5034819;28;20037;-55
2021/04/26 13:39:53;;;;;;;37.85;18.95;;;;;;;;;;5033819;28;20048;-53
2021/04/26 13:42:19;;;;;;;36.47;19.27;;;;;;;;;;5032472;28;20052;-56
2021/04/26 13:44:45;;;;;;;35.45;18.17;;;;;;;;;;5033087;28;20041;-53
2021/04/26 13:47:11;;;;;;;32.03;17.40;;;;;;;;;;5033540;28;20408;-56
2021/04/26 13:49:37;;;;;;;35.28;17.42;;;;;;;;;;5006790;28;20037;-56
2021/04/26 13:52:03;;;;;;;42.10;18.00;;;;;;;;;;5015114;28;20076;-54
2021/04/26 13:54:29;;;;;;;30.13;16.30;;;;;;;;;;5031284;28;20037;-56
2021/04/26 13:56:54;;;;;;;29.75;16.45;;;;;;;;;;5031920;28;20041;-54
2021/04/26 13:59:20;;;;;;;32.10;16.90;;;;;;;;;;5032967;28;20040;-52
2021/04/26 14:01:46;;;;;;;28.63;15.40;;;;;;;;;;5032059;28;20032;-55
2021/04/26 14:04:12;;;;;;;27.00;15.05;;;;;;;;;;5033721;28;20383;-52
2021/04/26 14:06:38;;;;;;;23.45;13.50;;;;;;;;;;5013303;28;20055;-56
2021/04/26 14:09:07;;;;;;;23.48;12.50;;;;;;;;;;5015034;28;20169;-53
2021/04/26 14:11:33;;;;;;;22.90;12.65;;;;;;;;;;5030312;28;20061;-55
2021/04/26 14:13:59;;;;;;;20.17;10.98;;;;;;;;;;5031963;28;20048;-53
2021/04/26 14:16:25;;;;;;;15.82;9.15;;;;;;;;;;5034982;28;20037;-55
2021/04/26 14:18:52;;;;;;;14.45;8.65;;;;;;;;;;5014225;28;20079;-52
2021/04/26 14:21:18;;;;;;;12.32;7.82;;;;;;;;;;5034276;28;20090;-54
2021/04/26 14:23:44;;;;;;;15.10;7.95;;;;;;;;;;5017581;28;20041;-56
2021/04/26 14:26:10;;;;;;;15.27;8.00;;;;;;;;;;5032638;28;20080;-56